FFT5047 KATL-KMCO
Flight info
| Callsign | FFT5047 |
|---|---|
| Flight time | 1h 1m |
| Altitude | 37000 |
| Route | SMLTZ3 WALET ZJAYX GRNCH5 |
| Aircraft | A320/M-SDE3FGHIRWY/LB1 |
Departure
| Time | 2026-05-07 13:25 |
|---|---|
| Airport | Hartsfield Jackson Atlanta International Airport (KATL) |
Arrival
| Time | 2026-05-07 14:26 |
|---|---|
| Airport | Orlando International Airport (KMCO) |
| Time | Latitude | Longitude | Altitude | Speed | Heading |
|---|---|---|---|---|---|
| 2026-05-07 12:56 | 33.63777 | -84.42882 | 1006 ft | 0 kts | 303° |
| 2026-05-07 13:11 | 33.63777 | -84.42881 | 1006 ft | 0 kts | 303° |
| 2026-05-07 13:15 | 33.63774 | -84.42876 | 1006 ft | 4 kts | 305° |
| 2026-05-07 13:15 | 33.63760 | -84.42851 | 1006 ft | 4 kts | 290° |
| 2026-05-07 13:15 | 33.63757 | -84.42822 | 1006 ft | 4 kts | 240° |
| 2026-05-07 13:15 | 33.63774 | -84.42807 | 1006 ft | 2 kts | 180° |
| 2026-05-07 13:16 | 33.63780 | -84.42807 | 1006 ft | 0 kts | 179° |
| 2026-05-07 13:18 | 33.63778 | -84.42807 | 1006 ft | 3 kts | 179° |
| 2026-05-07 13:19 | 33.63725 | -84.42805 | 1006 ft | 0 kts | 179° |
| 2026-05-07 13:19 | 33.63723 | -84.42805 | 1006 ft | 3 kts | 179° |
| 2026-05-07 13:19 | 33.63657 | -84.42723 | 1007 ft | 19 kts | 99° |
| 2026-05-07 13:20 | 33.63655 | -84.42565 | 1007 ft | 22 kts | 89° |
| 2026-05-07 13:20 | 33.63656 | -84.42389 | 1007 ft | 20 kts | 90° |
| 2026-05-07 13:20 | 33.63656 | -84.42231 | 1007 ft | 18 kts | 89° |
| 2026-05-07 13:20 | 33.63655 | -84.42091 | 1007 ft | 16 kts | 91° |
| 2026-05-07 13:21 | 33.63655 | -84.41957 | 1006 ft | 17 kts | 90° |
| 2026-05-07 13:21 | 33.63655 | -84.41826 | 1006 ft | 15 kts | 89° |
| 2026-05-07 13:21 | 33.63656 | -84.41713 | 1006 ft | 12 kts | 89° |
| 2026-05-07 13:21 | 33.63655 | -84.41611 | 1006 ft | 16 kts | 91° |
| 2026-05-07 13:22 | 33.63657 | -84.41441 | 1006 ft | 20 kts | 88° |
| 2026-05-07 13:22 | 33.63658 | -84.41279 | 1006 ft | 19 kts | 90° |
| 2026-05-07 13:22 | 33.63656 | -84.41133 | 1006 ft | 17 kts | 92° |
| 2026-05-07 13:22 | 33.63655 | -84.40978 | 1006 ft | 21 kts | 89° |
| 2026-05-07 13:23 | 33.63656 | -84.40813 | 1006 ft | 18 kts | 91° |
| 2026-05-07 13:23 | 33.63576 | -84.40745 | 1007 ft | 13 kts | 179° |
| 2026-05-07 13:23 | 33.63495 | -84.40746 | 1007 ft | 10 kts | 199° |
| 2026-05-07 13:23 | 33.63470 | -84.40804 | 1007 ft | 10 kts | 266° |
| 2026-05-07 13:24 | 33.63474 | -84.41071 | 1006 ft | 64 kts | 272° |
| 2026-05-07 13:24 | 33.63480 | -84.41875 | 1007 ft | 125 kts | 269° |
| 2026-05-07 13:24 | 33.63476 | -84.43112 | 1023 ft | 170 kts | 269° |
| 2026-05-07 13:24 | 33.63475 | -84.44625 | 1448 ft | 187 kts | 273° |
| 2026-05-07 13:25 | 33.63552 | -84.46206 | 2145 ft | 190 kts | 271° |
| 2026-05-07 13:25 | 33.63596 | -84.47791 | 2887 ft | 191 kts | 261° |
| 2026-05-07 13:25 | 33.63584 | -84.49411 | 3551 ft | 197 kts | 262° |
| 2026-05-07 13:25 | 33.63622 | -84.51072 | 4290 ft | 202 kts | 264° |
| 2026-05-07 13:26 | 33.63781 | -84.52747 | 5154 ft | 201 kts | 270° |
| 2026-05-07 13:26 | 33.64100 | -84.54375 | 6026 ft | 199 kts | 276° |
| 2026-05-07 13:26 | 33.64542 | -84.55876 | 7072 ft | 181 kts | 277° |
| 2026-05-07 13:26 | 33.64893 | -84.57216 | 8125 ft | 158 kts | 272° |
| 2026-05-07 13:27 | 33.65105 | -84.58507 | 8683 ft | 164 kts | 269° |
| 2026-05-07 13:27 | 33.65263 | -84.59950 | 8921 ft | 183 kts | 266° |
| 2026-05-07 13:27 | 33.65371 | -84.61434 | 9797 ft | 168 kts | 265° |
| 2026-05-07 13:27 | 33.65448 | -84.62744 | 10644 ft | 157 kts | 264° |
| 2026-05-07 13:28 | 33.65172 | -84.64089 | 10689 ft | 192 kts | 233° |
| 2026-05-07 13:28 | 33.64007 | -84.65177 | 10891 ft | 231 kts | 205° |
| 2026-05-07 13:28 | 33.62489 | -84.65801 | 11661 ft | 232 kts | 205° |
| 2026-05-07 13:28 | 33.60943 | -84.66417 | 12336 ft | 236 kts | 205° |
| 2026-05-07 13:29 | 33.59403 | -84.67154 | 12801 ft | 241 kts | 224° |
| 2026-05-07 13:29 | 33.58177 | -84.68570 | 13050 ft | 256 kts | 232° |
| 2026-05-07 13:29 | 33.56598 | -84.69757 | 13551 ft | 288 kts | 205° |
| 2026-05-07 13:29 | 33.54500 | -84.69809 | 14239 ft | 318 kts | 181° |
| 2026-05-07 13:30 | 33.52311 | -84.69270 | 14952 ft | 322 kts | 180° |
| 2026-05-07 13:30 | 33.50104 | -84.68697 | 15633 ft | 327 kts | 179° |
| 2026-05-07 13:30 | 33.47873 | -84.68107 | 16338 ft | 329 kts | 180° |
| 2026-05-07 13:30 | 33.45628 | -84.67561 | 17029 ft | 330 kts | 181° |
| 2026-05-07 13:31 | 33.43361 | -84.66850 | 17655 ft | 347 kts | 171° |
| 2026-05-07 13:31 | 33.41146 | -84.65512 | 18180 ft | 371 kts | 157° |
| 2026-05-07 13:31 | 33.39076 | -84.63439 | 18303 ft | 402 kts | 144° |
| 2026-05-07 13:31 | 33.37039 | -84.61043 | 18504 ft | 417 kts | 144° |
| 2026-05-07 13:32 | 33.34964 | -84.58571 | 18932 ft | 423 kts | 143° |
| 2026-05-07 13:32 | 33.32873 | -84.56068 | 19430 ft | 427 kts | 143° |
| 2026-05-07 13:32 | 33.30763 | -84.53549 | 19962 ft | 431 kts | 144° |
| 2026-05-07 13:32 | 33.28633 | -84.51015 | 20490 ft | 434 kts | 144° |
| 2026-05-07 13:33 | 33.26485 | -84.48469 | 21010 ft | 436 kts | 144° |
| 2026-05-07 13:33 | 33.24317 | -84.45915 | 21524 ft | 439 kts | 144° |
| 2026-05-07 13:33 | 33.22130 | -84.43346 | 22074 ft | 443 kts | 144° |
| 2026-05-07 13:33 | 33.19924 | -84.40757 | 22596 ft | 445 kts | 144° |
| 2026-05-07 13:34 | 33.17708 | -84.38157 | 23083 ft | 448 kts | 145° |
| 2026-05-07 13:34 | 33.13226 | -84.32916 | 23947 ft | 454 kts | 144° |
| 2026-05-07 13:34 | 33.10971 | -84.30268 | 24348 ft | 456 kts | 144° |
| 2026-05-07 13:35 | 33.08706 | -84.27608 | 24741 ft | 458 kts | 144° |
| 2026-05-07 13:35 | 33.06425 | -84.24938 | 25154 ft | 461 kts | 144° |
| 2026-05-07 13:35 | 33.04126 | -84.22256 | 25592 ft | 463 kts | 144° |
| 2026-05-07 13:35 | 33.01773 | -84.19658 | 25962 ft | 458 kts | 150° |
| 2026-05-07 13:36 | 32.99193 | -84.17503 | 26360 ft | 449 kts | 159° |
| 2026-05-07 13:36 | 32.96467 | -84.15884 | 26742 ft | 439 kts | 168° |
| 2026-05-07 13:36 | 32.93569 | -84.14663 | 27132 ft | 436 kts | 171° |
| 2026-05-07 13:36 | 32.90732 | -84.13511 | 27511 ft | 438 kts | 171° |
| 2026-05-07 13:37 | 32.87839 | -84.12329 | 27874 ft | 440 kts | 171° |
| 2026-05-07 13:37 | 32.84936 | -84.11134 | 28260 ft | 442 kts | 171° |
| 2026-05-07 13:37 | 32.82027 | -84.09934 | 28627 ft | 444 kts | 170° |
| 2026-05-07 13:37 | 32.79097 | -84.08723 | 28999 ft | 446 kts | 170° |
| 2026-05-07 13:38 | 32.76154 | -84.07506 | 29361 ft | 448 kts | 170° |
| 2026-05-07 13:38 | 32.73205 | -84.06290 | 29657 ft | 451 kts | 169° |
| 2026-05-07 13:38 | 32.70231 | -84.05067 | 29963 ft | 454 kts | 169° |
| 2026-05-07 13:38 | 32.67240 | -84.03842 | 30246 ft | 456 kts | 169° |
| 2026-05-07 13:39 | 32.64231 | -84.02613 | 30541 ft | 457 kts | 169° |
| 2026-05-07 13:39 | 32.61219 | -84.01380 | 30840 ft | 459 kts | 169° |
| 2026-05-07 13:39 | 32.58198 | -84.00144 | 31143 ft | 460 kts | 169° |
| 2026-05-07 13:39 | 32.55169 | -83.98904 | 31437 ft | 461 kts | 169° |
| 2026-05-07 13:40 | 32.52139 | -83.97664 | 31820 ft | 460 kts | 169° |
| 2026-05-07 13:40 | 32.49122 | -83.96426 | 32249 ft | 458 kts | 169° |
| 2026-05-07 13:40 | 32.46119 | -83.95198 | 32624 ft | 456 kts | 169° |
| 2026-05-07 13:40 | 32.43115 | -83.93977 | 32944 ft | 457 kts | 169° |
| 2026-05-07 13:41 | 32.40108 | -83.92758 | 33308 ft | 456 kts | 169° |
| 2026-05-07 13:41 | 32.37149 | -83.91345 | 33704 ft | 463 kts | 161° |
| 2026-05-07 13:41 | 32.34364 | -83.89372 | 34054 ft | 472 kts | 151° |
| 2026-05-07 13:41 | 32.31730 | -83.87036 | 34371 ft | 473 kts | 150° |
| 2026-05-07 13:42 | 32.29104 | -83.84699 | 34685 ft | 472 kts | 150° |
| 2026-05-07 13:42 | 32.26484 | -83.82372 | 34991 ft | 471 kts | 150° |
| 2026-05-07 13:42 | 32.24746 | -83.80832 | 35200 ft | 470 kts | 150° |
| 2026-05-07 13:42 | 32.21248 | -83.77738 | 35601 ft | 469 kts | 151° |
| 2026-05-07 13:43 | 32.19521 | -83.76211 | 35772 ft | 469 kts | 151° |
| 2026-05-07 13:43 | 32.16902 | -83.73900 | 35921 ft | 471 kts | 150° |
| 2026-05-07 13:43 | 32.14268 | -83.71579 | 36063 ft | 474 kts | 150° |
| 2026-05-07 13:43 | 32.11622 | -83.69245 | 36297 ft | 475 kts | 150° |
| 2026-05-07 13:44 | 32.08984 | -83.66914 | 36552 ft | 474 kts | 150° |
| 2026-05-07 13:44 | 32.05491 | -83.63825 | 36883 ft | 474 kts | 150° |
| 2026-05-07 13:44 | 32.03705 | -83.62248 | 36951 ft | 473 kts | 150° |
| 2026-05-07 13:45 | 31.98462 | -83.57630 | 36984 ft | 469 kts | 150° |
| 2026-05-07 13:45 | 31.93231 | -83.53045 | 36985 ft | 469 kts | 150° |
| 2026-05-07 13:46 | 31.87976 | -83.48450 | 36991 ft | 472 kts | 150° |
| 2026-05-07 13:46 | 31.82700 | -83.43835 | 36994 ft | 472 kts | 150° |
| 2026-05-07 13:47 | 31.77428 | -83.39223 | 37085 ft | 473 kts | 150° |
| 2026-05-07 13:47 | 31.72153 | -83.34608 | 37103 ft | 472 kts | 150° |
| 2026-05-07 13:48 | 31.66878 | -83.30006 | 37105 ft | 473 kts | 150° |
| 2026-05-07 13:48 | 31.61455 | -83.25884 | 36965 ft | 461 kts | 161° |
| 2026-05-07 13:49 | 31.55669 | -83.22648 | 36991 ft | 461 kts | 161° |
| 2026-05-07 13:49 | 31.49873 | -83.19414 | 37012 ft | 461 kts | 161° |
| 2026-05-07 13:50 | 31.44084 | -83.16181 | 37027 ft | 462 kts | 161° |
| 2026-05-07 13:50 | 31.38285 | -83.12937 | 37027 ft | 462 kts | 161° |
| 2026-05-07 13:51 | 31.32489 | -83.09699 | 37006 ft | 463 kts | 161° |
| 2026-05-07 13:51 | 31.26666 | -83.06459 | 37015 ft | 464 kts | 161° |
| 2026-05-07 13:52 | 31.20834 | -83.03217 | 37023 ft | 465 kts | 161° |
| 2026-05-07 13:52 | 31.14994 | -82.99968 | 37046 ft | 465 kts | 161° |
| 2026-05-07 13:53 | 31.09148 | -82.96729 | 37061 ft | 465 kts | 161° |
| 2026-05-07 13:53 | 31.03297 | -82.93494 | 37039 ft | 465 kts | 161° |
| 2026-05-07 13:54 | 30.97449 | -82.90255 | 37053 ft | 466 kts | 161° |
| 2026-05-07 13:54 | 30.91593 | -82.87018 | 37068 ft | 466 kts | 161° |
| 2026-05-07 13:55 | 30.86082 | -82.82886 | 37110 ft | 477 kts | 148° |
| 2026-05-07 13:55 | 30.80849 | -82.78140 | 37114 ft | 477 kts | 148° |
| 2026-05-07 13:56 | 30.75606 | -82.73408 | 37126 ft | 478 kts | 148° |
| 2026-05-07 13:56 | 30.70344 | -82.68677 | 37128 ft | 478 kts | 148° |
| 2026-05-07 13:57 | 30.65079 | -82.63950 | 37132 ft | 479 kts | 148° |
| 2026-05-07 13:57 | 30.59812 | -82.59201 | 37137 ft | 479 kts | 148° |
| 2026-05-07 13:58 | 30.54540 | -82.54453 | 37088 ft | 483 kts | 148° |
| 2026-05-07 13:58 | 30.51872 | -82.52064 | 36839 ft | 485 kts | 148° |
| 2026-05-07 13:58 | 30.49199 | -82.49672 | 36587 ft | 485 kts | 148° |
| 2026-05-07 13:58 | 30.46534 | -82.47287 | 36341 ft | 483 kts | 148° |
| 2026-05-07 13:59 | 30.43909 | -82.44937 | 36100 ft | 482 kts | 148° |
| 2026-05-07 13:59 | 30.41263 | -82.42569 | 35858 ft | 480 kts | 148° |
| 2026-05-07 13:59 | 30.38621 | -82.40207 | 35615 ft | 479 kts | 148° |
| 2026-05-07 13:59 | 30.35985 | -82.37855 | 35383 ft | 478 kts | 148° |
| 2026-05-07 14:00 | 30.33356 | -82.35514 | 35151 ft | 476 kts | 148° |
| 2026-05-07 14:00 | 30.30735 | -82.33179 | 34916 ft | 475 kts | 148° |
| 2026-05-07 14:00 | 30.28122 | -82.30847 | 34663 ft | 474 kts | 148° |
| 2026-05-07 14:00 | 30.25511 | -82.28518 | 34433 ft | 473 kts | 148° |
| 2026-05-07 14:01 | 30.22887 | -82.26246 | 34196 ft | 468 kts | 153° |
| 2026-05-07 14:01 | 30.20093 | -82.24426 | 33730 ft | 456 kts | 163° |
| 2026-05-07 14:01 | 30.17159 | -82.23197 | 33221 ft | 443 kts | 173° |
| 2026-05-07 14:01 | 30.14184 | -82.22510 | 32717 ft | 432 kts | 179° |
| 2026-05-07 14:02 | 30.11230 | -82.21943 | 32249 ft | 429 kts | 179° |
| 2026-05-07 14:02 | 30.08296 | -82.21367 | 31771 ft | 427 kts | 179° |
| 2026-05-07 14:02 | 30.05381 | -82.20784 | 31290 ft | 424 kts | 179° |
| 2026-05-07 14:02 | 30.02485 | -82.20204 | 30836 ft | 421 kts | 179° |
| 2026-05-07 14:03 | 29.99609 | -82.19628 | 30376 ft | 418 kts | 179° |
| 2026-05-07 14:03 | 29.96748 | -82.19059 | 29893 ft | 415 kts | 179° |
| 2026-05-07 14:03 | 29.93920 | -82.18500 | 29449 ft | 410 kts | 179° |
| 2026-05-07 14:03 | 29.91126 | -82.17950 | 28998 ft | 405 kts | 179° |
| 2026-05-07 14:04 | 29.88364 | -82.17403 | 28555 ft | 401 kts | 179° |
| 2026-05-07 14:04 | 29.85633 | -82.16855 | 28133 ft | 396 kts | 179° |
| 2026-05-07 14:04 | 29.82933 | -82.16310 | 27713 ft | 392 kts | 179° |
| 2026-05-07 14:04 | 29.80258 | -82.15772 | 27279 ft | 389 kts | 179° |
| 2026-05-07 14:05 | 29.77604 | -82.15243 | 26847 ft | 386 kts | 179° |
| 2026-05-07 14:05 | 29.74963 | -82.14723 | 26412 ft | 383 kts | 179° |
| 2026-05-07 14:05 | 29.72340 | -82.14207 | 25960 ft | 382 kts | 179° |
| 2026-05-07 14:05 | 29.69729 | -82.13690 | 25519 ft | 380 kts | 179° |
| 2026-05-07 14:06 | 29.67126 | -82.13171 | 25056 ft | 379 kts | 179° |
| 2026-05-07 14:06 | 29.64529 | -82.12655 | 24593 ft | 379 kts | 179° |
| 2026-05-07 14:06 | 29.61932 | -82.12141 | 24120 ft | 378 kts | 179° |
| 2026-05-07 14:06 | 29.59338 | -82.11630 | 23645 ft | 378 kts | 179° |
| 2026-05-07 14:07 | 29.56747 | -82.11117 | 23111 ft | 377 kts | 178° |
| 2026-05-07 14:07 | 29.54168 | -82.10605 | 22651 ft | 375 kts | 178° |
| 2026-05-07 14:07 | 29.51606 | -82.10098 | 22179 ft | 373 kts | 178° |
| 2026-05-07 14:07 | 29.49057 | -82.09591 | 21726 ft | 371 kts | 178° |
| 2026-05-07 14:08 | 29.46517 | -82.09085 | 21284 ft | 370 kts | 178° |
| 2026-05-07 14:08 | 29.43988 | -82.08583 | 20838 ft | 368 kts | 177° |
| 2026-05-07 14:08 | 29.41500 | -82.08090 | 20399 ft | 367 kts | 177° |
| 2026-05-07 14:08 | 29.38988 | -82.07593 | 19961 ft | 366 kts | 177° |
| 2026-05-07 14:09 | 29.36483 | -82.07096 | 19521 ft | 365 kts | 177° |
| 2026-05-07 14:09 | 29.33986 | -82.06601 | 19084 ft | 364 kts | 177° |
| 2026-05-07 14:09 | 29.31495 | -82.06044 | 18647 ft | 367 kts | 171° |
| 2026-05-07 14:09 | 29.29101 | -82.04956 | 18167 ft | 374 kts | 156° |
| 2026-05-07 14:10 | 29.26828 | -82.03524 | 17687 ft | 373 kts | 156° |
| 2026-05-07 14:10 | 29.24561 | -82.02091 | 17189 ft | 367 kts | 156° |
| 2026-05-07 14:10 | 29.22369 | -82.00703 | 16773 ft | 353 kts | 156° |
| 2026-05-07 14:10 | 29.20257 | -81.99366 | 16366 ft | 341 kts | 156° |
| 2026-05-07 14:11 | 29.18214 | -81.98078 | 15968 ft | 330 kts | 156° |
| 2026-05-07 14:11 | 29.16233 | -81.96833 | 15598 ft | 320 kts | 156° |
| 2026-05-07 14:11 | 29.14306 | -81.95625 | 15229 ft | 311 kts | 156° |
| 2026-05-07 14:11 | 29.12408 | -81.94438 | 14873 ft | 312 kts | 156° |
| 2026-05-07 14:12 | 29.10494 | -81.93242 | 14505 ft | 314 kts | 156° |
| 2026-05-07 14:12 | 29.08573 | -81.92039 | 14146 ft | 316 kts | 156° |
| 2026-05-07 14:12 | 29.06699 | -81.90705 | 13760 ft | 322 kts | 146° |
| 2026-05-07 14:12 | 29.05032 | -81.88974 | 13341 ft | 325 kts | 141° |
| 2026-05-07 14:13 | 29.03390 | -81.87199 | 12970 ft | 325 kts | 141° |
| 2026-05-07 14:13 | 29.01742 | -81.85431 | 12582 ft | 325 kts | 141° |
| 2026-05-07 14:13 | 29.00093 | -81.83671 | 12188 ft | 325 kts | 141° |
| 2026-05-07 14:13 | 28.98444 | -81.81902 | 11793 ft | 325 kts | 138° |
| 2026-05-07 14:14 | 28.96992 | -81.79911 | 11401 ft | 328 kts | 131° |
| 2026-05-07 14:14 | 28.95607 | -81.77843 | 10988 ft | 328 kts | 131° |
| 2026-05-07 14:14 | 28.94219 | -81.75776 | 10575 ft | 328 kts | 131° |
| 2026-05-07 14:14 | 28.92839 | -81.73724 | 10354 ft | 321 kts | 131° |
| 2026-05-07 14:15 | 28.91495 | -81.71727 | 10152 ft | 314 kts | 131° |
| 2026-05-07 14:15 | 28.90178 | -81.69775 | 10040 ft | 309 kts | 131° |
| 2026-05-07 14:15 | 28.88868 | -81.67836 | 9964 ft | 309 kts | 131° |
| 2026-05-07 14:15 | 28.87545 | -81.65876 | 9488 ft | 313 kts | 131° |
| 2026-05-07 14:16 | 28.86244 | -81.63947 | 9234 ft | 306 kts | 131° |
| 2026-05-07 14:16 | 28.84941 | -81.62014 | 8890 ft | 304 kts | 131° |
| 2026-05-07 14:16 | 28.83659 | -81.60115 | 8507 ft | 299 kts | 131° |
| 2026-05-07 14:16 | 28.82397 | -81.58245 | 7896 ft | 296 kts | 131° |
| 2026-05-07 14:17 | 28.81170 | -81.56430 | 7629 ft | 282 kts | 131° |
| 2026-05-07 14:17 | 28.79995 | -81.54691 | 7458 ft | 273 kts | 131° |
| 2026-05-07 14:17 | 28.78852 | -81.52976 | 7157 ft | 271 kts | 129° |
| 2026-05-07 14:17 | 28.77792 | -81.51207 | 6846 ft | 270 kts | 127° |
| 2026-05-07 14:18 | 28.76785 | -81.49418 | 6545 ft | 267 kts | 126° |
| 2026-05-07 14:18 | 28.75804 | -81.47642 | 6264 ft | 263 kts | 126° |
| 2026-05-07 14:18 | 28.74918 | -81.45857 | 6075 ft | 256 kts | 116° |
| 2026-05-07 14:18 | 28.74260 | -81.44003 | 5881 ft | 248 kts | 115° |
| 2026-05-07 14:19 | 28.73624 | -81.42207 | 5690 ft | 241 kts | 116° |
| 2026-05-07 14:19 | 28.73013 | -81.40481 | 5496 ft | 236 kts | 116° |
| 2026-05-07 14:19 | 28.72394 | -81.38732 | 5303 ft | 234 kts | 116° |
| 2026-05-07 14:19 | 28.71787 | -81.37019 | 5110 ft | 233 kts | 115° |
| 2026-05-07 14:20 | 28.71136 | -81.35379 | 4930 ft | 229 kts | 126° |
| 2026-05-07 14:20 | 28.70099 | -81.34043 | 4774 ft | 224 kts | 146° |
| 2026-05-07 14:20 | 28.68752 | -81.33205 | 4571 ft | 219 kts | 166° |
| 2026-05-07 14:20 | 28.67271 | -81.32939 | 4340 ft | 213 kts | 182° |
| 2026-05-07 14:21 | 28.65843 | -81.32924 | 4074 ft | 197 kts | 181° |
| 2026-05-07 14:21 | 28.64518 | -81.32909 | 3824 ft | 185 kts | 182° |
| 2026-05-07 14:21 | 28.63270 | -81.32896 | 3601 ft | 175 kts | 182° |
| 2026-05-07 14:21 | 28.62091 | -81.32883 | 3386 ft | 166 kts | 182° |
| 2026-05-07 14:22 | 28.60952 | -81.32871 | 3177 ft | 161 kts | 183° |
| 2026-05-07 14:22 | 28.59849 | -81.32859 | 2975 ft | 156 kts | 184° |
| 2026-05-07 14:22 | 28.58772 | -81.32847 | 2770 ft | 153 kts | 184° |
| 2026-05-07 14:22 | 28.57717 | -81.32836 | 2569 ft | 149 kts | 184° |
| 2026-05-07 14:23 | 28.56691 | -81.32825 | 2382 ft | 146 kts | 183° |
| 2026-05-07 14:23 | 28.55686 | -81.32814 | 2215 ft | 142 kts | 184° |
| 2026-05-07 14:23 | 28.54701 | -81.32803 | 2019 ft | 140 kts | 184° |
| 2026-05-07 14:23 | 28.53725 | -81.32793 | 1847 ft | 137 kts | 183° |
| 2026-05-07 14:24 | 28.52781 | -81.32783 | 1660 ft | 134 kts | 183° |
| 2026-05-07 14:24 | 28.51846 | -81.32773 | 1473 ft | 135 kts | 183° |
| 2026-05-07 14:24 | 28.50903 | -81.32763 | 1295 ft | 135 kts | 184° |
| 2026-05-07 14:24 | 28.49969 | -81.32746 | 1131 ft | 134 kts | 183° |
| 2026-05-07 14:25 | 28.49038 | -81.32739 | 952 ft | 136 kts | 181° |
| 2026-05-07 14:25 | 28.48087 | -81.32731 | 783 ft | 135 kts | 182° |
| 2026-05-07 14:25 | 28.47160 | -81.32721 | 617 ft | 132 kts | 180° |
| 2026-05-07 14:25 | 28.46245 | -81.32712 | 422 ft | 133 kts | 182° |
| 2026-05-07 14:26 | 28.45323 | -81.32702 | 250 ft | 132 kts | 182° |
| 2026-05-07 14:26 | 28.44425 | -81.32693 | 117 ft | 125 kts | 182° |
| 2026-05-07 14:26 | 28.43722 | -81.32696 | 106 ft | 54 kts | 180° |
| 2026-05-07 14:26 | 28.43457 | -81.32684 | 107 ft | 32 kts | 175° |
| 2026-05-07 14:27 | 28.43289 | -81.32671 | 109 ft | 21 kts | 178° |
| 2026-05-07 14:27 | 28.43130 | -81.32638 | 107 ft | 25 kts | 153° |
| 2026-05-07 14:27 | 28.43059 | -81.32472 | 106 ft | 26 kts | 94° |
| 2026-05-07 14:27 | 28.43060 | -81.32257 | 102 ft | 29 kts | 89° |
| 2026-05-07 14:28 | 28.43078 | -81.32085 | 99 ft | 21 kts | 63° |
| 2026-05-07 14:28 | 28.43160 | -81.31938 | 102 ft | 22 kts | 56° |
| 2026-05-07 14:28 | 28.43243 | -81.31797 | 102 ft | 21 kts | 57° |
| 2026-05-07 14:28 | 28.43312 | -81.31666 | 100 ft | 18 kts | 54° |
| 2026-05-07 14:29 | 28.43341 | -81.31622 | 101 ft | 0 kts | 53° |